Terminal Aerodrome Forecast
Issued by NWS Grand Forks, ND

Home | Current Version | Previous Version | Graphics & Text | Print | Product List | Glossary On
Versions: 1 2 3 4 5 6 7 8 9 10 11 12 13 14
000
FTUS43 KFGF 151700
TAFFAR
TAF
KFAR 151726Z 1518/1618 13008KT P6SM BKN100
     FM152200 13014KT P6SM BKN080
     FM160600 08020G30KT 3SM -SN BKN035
     FM161200 03016G25KT 5SM -SN OVC015=

USA.gov is the U.S. government's official web portal to all federal, state and local government web resources and services.